createdAt,value
2023-03-17T00:02:04.378Z,12.64
2023-03-17T00:04:33.144Z,12.65
2023-03-17T00:07:01.478Z,12.65
2023-03-17T00:09:29.923Z,12.66
2023-03-17T00:11:58.657Z,12.68
2023-03-17T00:14:28.251Z,12.70
2023-03-17T00:16:56.565Z,12.72
2023-03-17T00:19:30.019Z,12.74
2023-03-17T00:21:59.128Z,12.72
2023-03-17T00:24:27.653Z,12.71
2023-03-17T00:26:56.012Z,12.70
2023-03-17T00:29:25.604Z,12.64
2023-03-17T00:31:56.357Z,12.67
2023-03-17T00:34:24.590Z,12.65
2023-03-17T00:36:53.545Z,12.62
2023-03-17T00:39:25.538Z,12.63
2023-03-17T00:41:55.927Z,12.61
2023-03-17T00:44:24.333Z,12.59
2023-03-17T00:46:54.449Z,12.56
2023-03-17T00:49:25.146Z,12.50
2023-03-17T00:51:54.362Z,12.40
2023-03-17T00:54:23.397Z,12.38
2023-03-17T00:56:52.844Z,12.36
2023-03-17T00:59:26.523Z,12.35
2023-03-17T01:01:56.659Z,12.28
2023-03-17T01:04:25.657Z,12.31
2023-03-17T01:06:54.429Z,12.30
2023-03-17T01:09:26.644Z,12.28
2023-03-17T01:11:55.195Z,12.22
2023-03-17T01:14:24.916Z,12.18
2023-03-17T01:16:55.334Z,12.16
2023-03-17T01:19:25.452Z,12.10
2023-03-17T01:21:53.711Z,12.13
2023-03-17T01:24:22.078Z,12.17
2023-03-17T01:26:50.974Z,12.12
2023-03-17T01:29:19.238Z,12.09
2023-03-17T01:31:47.862Z,12.11
2023-03-17T01:34:16.555Z,12.14
2023-03-17T01:36:46.922Z,12.14
2023-03-17T01:39:16.276Z,12.20
2023-03-17T01:41:45.647Z,12.22
2023-03-17T01:44:18.649Z,12.26
2023-03-17T01:46:47.963Z,12.28
2023-03-17T01:49:21.953Z,12.22
2023-03-17T01:52:01.079Z,12.26
2023-03-17T01:54:35.748Z,12.21
2023-03-17T01:57:10.605Z,12.25
2023-03-17T01:59:45.608Z,12.14
2023-03-17T02:02:19.925Z,12.16
2023-03-17T02:04:48.415Z,12.22
2023-03-17T02:07:18.756Z,12.29
2023-03-17T02:09:47.624Z,12.28
2023-03-17T02:12:16.498Z,12.26
2023-03-17T02:14:45.339Z,12.25
2023-03-17T02:17:14.937Z,12.30
2023-03-17T02:19:43.967Z,12.30
2023-03-17T02:22:13.850Z,12.28
2023-03-17T02:24:47.340Z,12.20
2023-03-17T02:27:20.396Z,12.28
2023-03-17T02:29:49.272Z,12.33
2023-03-17T02:32:19.072Z,12.33
2023-03-17T02:34:48.743Z,12.34
2023-03-17T02:37:20.635Z,12.31
2023-03-17T02:39:49.001Z,12.32
2023-03-17T02:42:17.188Z,12.32
2023-03-17T02:44:45.642Z,12.29
2023-03-17T02:47:14.407Z,12.28
2023-03-17T02:49:44.048Z,12.32
2023-03-17T02:52:12.439Z,12.26
2023-03-17T02:54:42.844Z,12.24
2023-03-17T02:57:11.417Z,12.27
2023-03-17T02:59:39.896Z,12.19
2023-03-17T03:02:08.228Z,12.22
2023-03-17T03:04:37.584Z,12.23
2023-03-17T03:07:07.467Z,12.21
2023-03-17T03:09:35.926Z,12.24
2023-03-17T03:12:06.165Z,12.29
2023-03-17T03:14:34.452Z,12.26
2023-03-17T03:17:02.728Z,12.29
2023-03-17T03:19:31.326Z,12.23
2023-03-17T03:21:59.914Z,12.25
2023-03-17T03:24:29.557Z,12.20
2023-03-17T03:26:57.781Z,12.20
2023-03-17T03:29:27.695Z,12.20
2023-03-17T03:31:56.571Z,12.25
2023-03-17T03:34:25.855Z,12.30
2023-03-17T03:36:54.580Z,12.29
2023-03-17T03:39:22.840Z,12.26
2023-03-17T03:41:51.088Z,12.21
2023-03-17T03:44:19.645Z,12.17
2023-03-17T03:46:49.353Z,12.20
2023-03-17T03:49:17.712Z,12.24
2023-03-17T03:51:46.453Z,12.27
2023-03-17T03:54:15.014Z,12.23
2023-03-17T03:56:43.533Z,12.23
2023-03-17T03:59:11.760Z,12.19
2023-03-17T04:01:40.123Z,12.18
2023-03-17T04:04:09.981Z,12.24
2023-03-17T04:06:38.243Z,12.22
2023-03-17T04:09:06.718Z,12.23
2023-03-17T04:11:35.013Z,12.24
2023-03-17T04:14:03.370Z,12.20
2023-03-17T04:16:32.049Z,12.24
2023-03-17T04:19:00.524Z,12.28
2023-03-17T04:21:30.397Z,12.33
2023-03-17T04:23:58.826Z,12.38
2023-03-17T04:26:27.229Z,12.29
2023-03-17T04:28:55.971Z,12.30
2023-03-17T04:31:24.521Z,12.34
2023-03-17T04:33:53.171Z,12.37
2023-03-17T04:36:36.574Z,12.26
2023-03-17T04:39:18.348Z,12.33
2023-03-17T04:42:06.476Z,12.38
2023-03-17T04:44:47.717Z,12.38
2023-03-17T04:47:35.601Z,12.36
2023-03-17T04:50:25.488Z,12.32
2023-03-17T04:53:09.161Z,12.25
2023-03-17T04:55:56.437Z,12.25
2023-03-17T04:58:44.709Z,12.22
2023-03-17T05:01:26.555Z,12.22
2023-03-17T05:04:25.311Z,12.20
2023-03-17T05:07:12.440Z,12.29
2023-03-17T05:10:02.247Z,12.29
2023-03-17T05:12:44.432Z,12.30
2023-03-17T05:15:39.414Z,12.19
2023-03-17T05:18:23.477Z,12.27
2023-03-17T05:21:11.489Z,12.29
2023-03-17T05:23:59.680Z,12.31
2023-03-17T05:26:42.392Z,12.32
2023-03-17T05:29:30.635Z,12.27
2023-03-17T05:32:12.473Z,12.23
2023-03-17T05:35:00.630Z,12.19
2023-03-17T05:37:42.462Z,12.14
2023-03-17T05:40:30.897Z,12.16
2023-03-17T05:43:14.376Z,12.17
2023-03-17T05:46:02.464Z,12.18
2023-03-17T05:48:43.615Z,12.18
2023-03-17T05:51:36.812Z,12.20
2023-03-17T05:54:17.645Z,12.19
2023-03-17T05:57:05.340Z,12.14
2023-03-17T05:59:48.658Z,12.11
2023-03-17T06:02:37.391Z,12.17
2023-03-17T06:05:18.597Z,12.22
2023-03-17T06:08:07.324Z,12.27
2023-03-17T06:10:48.642Z,12.26
2023-03-17T06:13:36.362Z,12.25
2023-03-17T06:16:27.342Z,12.31
2023-03-17T06:19:15.818Z,12.30
2023-03-17T06:21:57.393Z,12.22
2023-03-17T06:24:45.764Z,12.18
2023-03-17T06:27:27.400Z,12.17
2023-03-17T06:30:18.568Z,12.12
2023-03-17T06:33:01.401Z,12.18
2023-03-17T06:35:49.576Z,12.18
2023-03-17T06:38:31.363Z,12.13
2023-03-17T06:41:26.320Z,12.15
2023-03-17T06:44:08.661Z,12.10
2023-03-17T06:46:56.335Z,12.17
2023-03-17T06:49:39.435Z,12.11
2023-03-17T06:52:27.490Z,12.03
2023-03-17T06:55:17.634Z,12.07
2023-03-17T06:57:59.254Z,12.07
2023-03-17T07:00:48.971Z,12.07
2023-03-17T07:03:31.333Z,12.15
2023-03-17T07:06:20.482Z,12.13
2023-03-17T07:09:02.463Z,12.19
2023-03-17T07:11:57.266Z,12.21
2023-03-17T07:14:39.008Z,12.21
2023-03-17T07:17:28.272Z,12.18
2023-03-17T07:20:18.468Z,12.21
2023-03-17T07:23:02.285Z,12.12
2023-03-17T07:25:50.513Z,12.19
2023-03-17T07:28:32.319Z,12.23
2023-03-17T07:31:21.572Z,12.25
2023-03-17T07:34:04.260Z,12.31
2023-03-17T07:36:52.479Z,12.27
2023-03-17T07:39:35.247Z,12.31
2023-03-17T07:43:13.299Z,12.40
2023-03-17T08:01:02.277Z,12.50
2023-03-17T08:04:01.195Z,12.58
2023-03-17T08:06:46.640Z,12.63
2023-03-17T08:09:35.137Z,12.69
2023-03-17T08:12:30.178Z,12.77
2023-03-17T08:15:13.205Z,12.74
2023-03-17T08:18:01.184Z,12.85
2023-03-17T08:20:51.588Z,13.15
2023-03-17T08:23:33.186Z,13.26
2023-03-17T08:26:22.071Z,13.28
2023-03-17T08:29:04.186Z,13.19
2023-03-17T08:31:52.516Z,13.13
2023-03-17T08:34:34.224Z,13.21
2023-03-17T08:37:24.836Z,13.13
2023-03-17T08:40:06.200Z,13.26
2023-03-17T08:43:03.168Z,13.41
2023-03-17T08:45:51.709Z,13.46
2023-03-17T08:48:33.183Z,13.40
2023-03-17T08:51:24.289Z,13.34
2023-03-17T08:54:07.084Z,13.23
2023-03-17T08:56:55.312Z,13.20
2023-03-17T08:59:37.293Z,13.18
2023-03-17T09:02:25.343Z,13.34
2023-03-17T09:05:07.116Z,13.45
2023-03-17T09:08:02.224Z,13.41
2023-03-17T09:10:45.341Z,13.48
2023-03-17T09:13:34.071Z,13.72
2023-03-17T09:16:24.169Z,13.83
2023-03-17T09:19:05.057Z,13.89
2023-03-17T09:21:53.264Z,14.19
2023-03-17T09:24:48.083Z,14.23
2023-03-17T09:27:38.657Z,14.07
2023-03-17T09:30:21.062Z,13.90
2023-03-17T09:33:10.354Z,13.92
2023-03-17T09:35:52.145Z,14.13
2023-03-17T09:38:41.059Z,14.27
2023-03-17T09:41:47.365Z,14.13
2023-03-17T09:44:53.997Z,14.26
2023-03-17T09:48:00.355Z,14.53
2023-03-17T09:50:55.043Z,14.56
2023-03-17T09:53:39.197Z,14.84
2023-03-17T09:56:28.320Z,15.32
2023-03-17T09:59:14.277Z,15.91
2023-03-17T10:02:04.074Z,16.24
2023-03-17T10:04:54.073Z,15.97
2023-03-17T10:07:42.947Z,16.59
2023-03-17T10:10:39.047Z,16.86
2023-03-17T10:13:51.310Z,17.12
2023-03-17T10:16:41.950Z,17.21
2023-03-17T10:19:37.370Z,16.83
2023-03-17T10:22:25.994Z,16.36
2023-03-17T10:25:28.004Z,15.69
2023-03-17T10:28:26.051Z,15.89
2023-03-17T10:31:26.958Z,16.10
2023-03-17T10:34:16.029Z,16.12
2023-03-17T10:37:08.994Z,16.23
2023-03-17T10:39:59.997Z,16.22
2023-03-17T10:42:41.991Z,16.33
2023-03-17T10:45:45.151Z,16.31
2023-03-17T10:48:27.024Z,16.19
2023-03-17T10:51:14.972Z,16.16
2023-03-17T10:54:08.293Z,16.39
2023-03-17T10:56:50.127Z,16.50
2023-03-17T11:00:28.834Z,16.29
2023-03-17T11:03:24.806Z,15.97
2023-03-17T11:06:15.075Z,15.68
2023-03-17T11:09:21.623Z,15.78
2023-03-17T11:12:33.007Z,15.90
2023-03-17T11:15:20.341Z,15.99
2023-03-17T11:18:10.847Z,15.98
2023-03-17T11:20:58.757Z,16.05
2023-03-17T11:23:59.851Z,15.99
2023-03-17T11:27:06.962Z,16.36
2023-03-17T11:30:07.993Z,16.25
2023-03-17T11:33:01.946Z,16.16
2023-03-17T11:35:53.234Z,16.10
2023-03-17T11:38:43.846Z,16.25
2023-03-17T11:41:53.139Z,16.59
2023-03-17T11:45:06.914Z,16.84
2023-03-17T11:47:59.998Z,16.87
2023-03-17T11:50:55.894Z,16.78
2023-03-17T11:54:08.796Z,16.62
2023-03-17T11:56:55.804Z,16.48
2023-03-17T11:59:49.850Z,16.36
2023-03-17T12:02:39.796Z,16.35
2023-03-17T12:05:32.819Z,16.46
2023-03-17T12:08:24.606Z,16.58
2023-03-17T12:11:16.826Z,16.52
2023-03-17T12:14:05.029Z,16.63
2023-03-17T12:16:55.838Z,16.63
2023-03-17T12:19:45.251Z,16.76
2023-03-17T12:22:40.841Z,16.88
2023-03-17T12:26:11.359Z,16.56
2023-03-17T12:29:15.930Z,16.33
2023-03-17T12:42:28.235Z,16.40
2023-03-17T12:49:45.925Z,15.95
2023-03-17T12:52:56.893Z,15.68
2023-03-17T12:56:03.519Z,15.68
2023-03-17T12:59:01.976Z,15.59
2023-03-17T13:02:03.117Z,15.73
2023-03-17T13:05:23.913Z,15.73
2023-03-17T13:08:28.778Z,15.65
2023-03-17T13:11:57.713Z,15.64
2023-03-17T13:14:56.700Z,15.60
2023-03-17T13:17:38.563Z,15.84
2023-03-17T13:20:31.788Z,15.86
2023-03-17T13:23:16.851Z,15.90
2023-03-17T13:26:06.835Z,16.08
2023-03-17T13:28:50.615Z,16.10
2023-03-17T13:31:50.754Z,16.15
2023-03-17T13:34:52.763Z,16.04
2023-03-17T13:37:39.934Z,15.90
2023-03-17T13:40:31.997Z,16.05
2023-03-17T13:43:24.914Z,16.25
2023-03-17T13:46:33.747Z,16.16
2023-03-17T13:49:37.221Z,15.84
2023-03-17T13:52:31.854Z,15.75
2023-03-17T13:55:52.735Z,15.78
2023-03-17T13:58:49.802Z,15.73
2023-03-17T14:01:38.698Z,15.49
2023-03-17T14:04:25.691Z,15.30
2023-03-17T14:07:19.671Z,14.99
2023-03-17T14:10:10.817Z,14.85
2023-03-17T14:12:59.704Z,14.72
2023-03-17T14:16:03.773Z,14.69
2023-03-17T14:18:50.548Z,14.55
2023-03-17T14:21:40.712Z,14.59
2023-03-17T14:24:24.910Z,14.69
2023-03-17T14:27:19.835Z,14.70
2023-03-17T14:30:15.806Z,14.76
2023-03-17T14:33:00.663Z,14.78
2023-03-17T14:35:50.908Z,14.77
2023-03-17T14:38:34.676Z,14.71
2023-03-17T14:41:27.788Z,14.71
2023-03-17T14:44:09.603Z,14.78
2023-03-17T14:47:14.669Z,14.69
2023-03-17T14:50:02.889Z,14.65
2023-03-17T14:52:47.626Z,14.57
2023-03-17T14:55:43.845Z,14.56
2023-03-17T14:58:31.671Z,14.38
2023-03-17T15:01:23.781Z,14.43
2023-03-17T15:04:15.596Z,14.39
2023-03-17T15:07:06.737Z,14.50
2023-03-17T15:09:48.572Z,14.73
2023-03-17T15:12:37.768Z,14.62
2023-03-17T15:15:30.540Z,14.69
2023-03-17T15:18:22.555Z,14.73
2023-03-17T15:21:05.929Z,14.55
2023-03-17T15:23:55.536Z,14.55
2023-03-17T15:26:44.744Z,14.44
2023-03-17T15:31:16.733Z,14.52
2023-03-17T15:51:09.647Z,14.21
2023-03-17T15:53:57.517Z,14.31
2023-03-17T15:56:45.899Z,14.17
2023-03-17T15:59:28.430Z,14.13
2023-03-17T16:02:33.760Z,13.86
2023-03-17T16:05:23.664Z,13.78
2023-03-17T16:24:45.445Z,14.53
2023-03-17T16:27:33.686Z,14.60
2023-03-17T16:30:21.425Z,14.59
2023-03-17T16:33:20.627Z,14.51
2023-03-17T16:36:04.444Z,14.70
2023-03-17T16:39:08.452Z,14.77
2023-03-17T16:41:51.080Z,14.79
2023-03-17T16:44:39.469Z,14.74
2023-03-17T16:47:27.786Z,14.53
2023-03-17T16:50:10.353Z,14.48
2023-03-17T16:52:59.582Z,14.19
2023-03-17T16:55:41.422Z,14.01
2023-03-17T17:11:48.550Z,13.48
2023-03-17T17:14:44.618Z,13.41
2023-03-17T17:17:37.220Z,13.44
2023-03-17T17:20:30.663Z,13.46
2023-03-17T17:23:24.800Z,13.50
2023-03-17T17:26:23.206Z,13.53
2023-03-17T17:51:49.393Z,13.08
2023-03-17T18:17:45.480Z,12.66
2023-03-17T18:20:57.120Z,12.63
2023-03-17T18:29:20.825Z,12.64
2023-03-17T18:32:54.672Z,12.54
2023-03-17T18:53:35.770Z,12.59
2023-03-17T19:00:47.774Z,12.42
2023-03-17T19:04:42.878Z,12.46
2023-03-17T19:16:37.583Z,12.44
2023-03-17T19:19:59.545Z,12.46
2023-03-17T19:23:01.249Z,12.43
2023-03-17T19:26:05.037Z,12.41
2023-03-17T19:33:34.333Z,12.30
2023-03-17T19:36:38.281Z,12.29
2023-03-17T19:39:30.118Z,12.31
2023-03-17T19:43:10.881Z,12.26
2023-03-17T19:46:17.278Z,12.26
2023-03-17T19:49:24.062Z,12.24
2023-03-17T19:52:40.776Z,12.31
2023-03-17T19:55:48.368Z,12.24
2023-03-17T20:02:30.759Z,12.29
2023-03-17T20:07:08.885Z,12.34
2023-03-17T20:09:56.073Z,12.36
2023-03-17T20:14:10.631Z,12.38
2023-03-17T20:17:17.242Z,12.28
2023-03-17T20:20:55.746Z,12.20
2023-03-17T20:32:49.787Z,12.12
2023-03-17T20:36:21.986Z,12.13
2023-03-17T22:54:30.978Z,11.56
2023-03-17T23:06:56.190Z,11.31
2023-03-17T23:10:32.216Z,11.34
2023-03-17T23:13:21.874Z,11.25
2023-03-17T23:16:13.700Z,11.17
2023-03-17T23:19:05.904Z,11.09
2023-03-17T23:21:52.228Z,11.05
2023-03-17T23:25:16.503Z,11.05
2023-03-17T23:28:49.960Z,11.06
2023-03-17T23:31:49.771Z,11.06
2023-03-17T23:34:50.850Z,11.06
2023-03-17T23:38:11.783Z,10.94
2023-03-17T23:41:18.596Z,10.88
2023-03-17T23:44:43.560Z,10.82
2023-03-17T23:47:32.103Z,10.68
2023-03-17T23:50:17.912Z,10.59
2023-03-17T23:53:16.447Z,10.58
2023-03-17T23:56:00.263Z,10.57
2023-03-17T23:58:57.427Z,10.55
